createdAt,value
2023-04-07T00:01:53.853Z,6.30
2023-04-07T00:04:43.928Z,6.40
2023-04-07T00:07:37.355Z,6.30
2023-04-07T00:10:36.765Z,6.30
2023-04-07T00:13:27.553Z,6.30
2023-04-07T00:16:17.969Z,6.30
2023-04-07T00:19:07.666Z,6.30
2023-04-07T00:21:57.207Z,6.40
2023-04-07T00:24:46.920Z,6.40
2023-04-07T00:27:38.012Z,6.50
2023-04-07T00:30:27.963Z,6.50
2023-04-07T00:33:17.873Z,6.50
2023-04-07T00:36:08.272Z,6.50
2023-04-07T00:38:57.934Z,6.50
2023-04-07T00:41:47.494Z,6.60
2023-04-07T00:44:38.993Z,6.60
2023-04-07T00:47:28.634Z,6.50
2023-04-07T00:50:18.422Z,6.60
2023-04-07T00:53:08.669Z,6.60
2023-04-07T00:55:58.468Z,6.60
2023-04-07T00:58:48.223Z,6.60
2023-04-07T01:01:46.690Z,6.60
2023-04-07T01:04:41.239Z,6.70
2023-04-07T01:07:38.332Z,6.70
2023-04-07T01:10:35.383Z,6.70
2023-04-07T01:13:29.565Z,6.70
2023-04-07T01:16:25.880Z,6.70
2023-04-07T01:19:23.674Z,6.80
2023-04-07T01:22:15.104Z,6.80
2023-04-07T01:25:28.260Z,6.70
2023-04-07T01:28:43.184Z,6.80
2023-04-07T01:31:35.478Z,6.70
2023-04-07T01:34:28.402Z,6.80
2023-04-07T01:37:19.178Z,6.80
2023-04-07T01:40:10.970Z,6.80
2023-04-07T01:43:01.031Z,6.80
2023-04-07T01:45:51.223Z,6.80
2023-04-07T01:48:42.589Z,6.80
2023-04-07T01:51:33.168Z,6.80
2023-04-07T01:54:23.591Z,6.70
2023-04-07T01:57:13.230Z,6.80
2023-04-07T02:00:02.648Z,6.80
2023-04-07T02:02:57.609Z,6.80
2023-04-07T02:05:50.292Z,6.80
2023-04-07T02:08:43.593Z,6.90
2023-04-07T02:17:44.559Z,6.90
2023-04-07T02:20:44.015Z,6.90
2023-04-07T02:23:48.773Z,7.00
2023-04-07T02:26:40.115Z,7.00
2023-04-07T02:29:40.479Z,7.00
2023-04-07T02:32:35.872Z,7.00
2023-04-07T02:35:27.773Z,7.10
2023-04-07T02:38:17.963Z,7.00
2023-04-07T02:41:11.781Z,7.00
2023-04-07T02:44:01.455Z,7.10
2023-04-07T02:46:51.186Z,7.10
2023-04-07T02:49:42.418Z,7.20
2023-04-07T02:52:32.852Z,7.20
2023-04-07T02:55:26.322Z,7.20
2023-04-07T02:58:17.786Z,7.20
2023-04-07T03:01:21.091Z,7.20
2023-04-07T03:04:21.272Z,7.20
2023-04-07T03:07:13.226Z,7.20
2023-04-07T03:10:06.787Z,7.10
2023-04-07T03:12:59.822Z,7.20
2023-04-07T03:15:53.322Z,7.10
2023-04-07T03:18:44.982Z,7.10
2023-04-07T03:21:37.645Z,7.10
2023-04-07T03:24:29.660Z,7.00
2023-04-07T03:27:23.541Z,7.10
2023-04-07T03:30:16.982Z,7.00
2023-04-07T03:33:09.214Z,7.00
2023-04-07T03:35:59.828Z,6.90
2023-04-07T03:38:50.205Z,7.00
2023-04-07T03:41:41.689Z,7.00
2023-04-07T03:44:35.591Z,7.00
2023-04-07T03:47:27.964Z,7.00
2023-04-07T03:50:20.613Z,7.00
2023-04-07T03:53:10.711Z,7.00
2023-04-07T03:56:03.333Z,6.90
2023-04-07T03:58:54.591Z,6.90
2023-04-07T04:01:44.117Z,7.00
2023-04-07T04:04:45.438Z,7.00
2023-04-07T04:07:40.089Z,7.00
2023-04-07T04:10:33.974Z,7.00
2023-04-07T04:13:38.948Z,7.00
2023-04-07T04:16:37.775Z,7.00
2023-04-07T04:19:27.785Z,7.10
2023-04-07T04:22:19.735Z,7.10
2023-04-07T04:25:12.892Z,7.10
2023-04-07T04:28:09.131Z,7.10
2023-04-07T04:30:59.260Z,7.20
2023-04-07T04:33:49.994Z,7.10
2023-04-07T04:36:44.440Z,7.20
2023-04-07T04:39:36.995Z,7.20
2023-04-07T04:42:29.021Z,7.30
2023-04-07T04:45:21.684Z,7.40
2023-04-07T04:48:13.948Z,7.50
2023-04-07T04:51:05.107Z,7.50
2023-04-07T04:53:55.368Z,7.60
2023-04-07T04:56:47.274Z,7.70
2023-04-07T04:59:38.626Z,7.70
2023-04-07T05:02:29.582Z,7.80
2023-04-07T05:05:21.760Z,7.80
2023-04-07T05:08:14.111Z,7.90
2023-04-07T05:11:05.731Z,8.00
2023-04-07T05:14:01.275Z,8.20
2023-04-07T05:16:57.336Z,8.30
2023-04-07T05:19:49.696Z,8.40
2023-04-07T05:22:40.675Z,8.40
2023-04-07T05:25:31.358Z,8.50
2023-04-07T05:28:27.363Z,8.50
2023-04-07T05:31:20.241Z,8.60
2023-04-07T05:34:19.933Z,8.70
2023-04-07T05:37:10.789Z,8.60
2023-04-07T05:40:01.172Z,8.60
2023-04-07T05:42:50.988Z,8.70
2023-04-07T05:45:41.862Z,8.90
2023-04-07T05:48:44.513Z,9.00
2023-04-07T05:51:36.326Z,8.90
2023-04-07T05:54:29.716Z,9.10
2023-04-07T05:57:20.135Z,9.10
2023-04-07T06:00:14.167Z,9.30
2023-04-07T06:03:25.168Z,9.20
2023-04-07T06:06:34.568Z,9.30
2023-04-07T06:09:28.595Z,9.40
2023-04-07T06:12:18.543Z,9.60
2023-04-07T06:15:09.209Z,10.00
2023-04-07T06:18:01.703Z,10.10
2023-04-07T06:20:57.436Z,10.10
2023-04-07T06:23:54.547Z,10.10
2023-04-07T06:26:53.726Z,10.20
2023-04-07T06:29:50.121Z,10.40
2023-04-07T06:32:47.559Z,10.50
2023-04-07T06:35:38.966Z,10.50
2023-04-07T06:38:32.433Z,10.60
2023-04-07T06:41:26.057Z,10.70
2023-04-07T06:44:27.745Z,10.70
2023-04-07T06:47:18.250Z,10.80
2023-04-07T06:50:14.118Z,11.00
2023-04-07T06:53:09.502Z,11.10
2023-04-07T06:56:08.096Z,11.30
2023-04-07T06:59:07.961Z,11.40
2023-04-07T07:02:11.298Z,11.60
2023-04-07T07:05:06.151Z,11.60
2023-04-07T07:07:57.945Z,11.40
2023-04-07T07:10:48.455Z,11.20
2023-04-07T07:13:45.527Z,11.20
2023-04-07T07:16:45.400Z,11.20
2023-04-07T07:19:38.912Z,11.30
2023-04-07T07:22:32.371Z,11.30
2023-04-07T07:25:27.588Z,11.40
2023-04-07T07:28:18.790Z,11.70
2023-04-07T07:31:20.803Z,11.90
2023-04-07T07:34:11.629Z,12.10
2023-04-07T07:37:08.134Z,12.30
2023-04-07T07:40:03.279Z,12.50
2023-04-07T07:42:57.670Z,12.60
2023-04-07T07:45:50.731Z,12.80
2023-04-07T07:48:44.647Z,13.10
2023-04-07T07:51:38.440Z,13.30
2023-04-07T07:54:34.866Z,13.30
2023-04-07T07:57:37.265Z,13.60
2023-04-07T08:00:32.685Z,13.80
2023-04-07T08:03:26.597Z,13.80
2023-04-07T08:06:17.168Z,13.80
2023-04-07T08:09:24.858Z,13.90
2023-04-07T08:12:21.245Z,14.00
2023-04-07T08:15:18.017Z,13.70
2023-04-07T08:18:12.537Z,13.40
2023-04-07T08:21:09.065Z,13.10
2023-04-07T08:23:59.466Z,13.10
2023-04-07T08:27:01.478Z,13.30
2023-04-07T08:30:00.801Z,13.50
2023-04-07T08:33:00.310Z,14.00
2023-04-07T08:35:51.198Z,14.50
2023-04-07T08:38:47.184Z,14.90
2023-04-07T08:41:46.283Z,15.00
2023-04-07T08:44:39.517Z,15.00
2023-04-07T08:47:47.434Z,15.20
2023-04-07T08:50:40.229Z,15.50
2023-04-07T08:53:47.097Z,15.60
2023-04-07T08:56:44.345Z,15.30
2023-04-07T08:59:43.721Z,15.30
2023-04-07T09:02:38.929Z,15.20
2023-04-07T09:05:35.597Z,15.10
2023-04-07T09:08:30.424Z,14.80
2023-04-07T09:11:24.207Z,14.70
2023-04-07T09:14:16.829Z,15.00
2023-04-07T09:17:09.103Z,15.30
2023-04-07T09:20:02.539Z,15.30
2023-04-07T09:23:00.163Z,15.40
2023-04-07T09:26:21.201Z,15.30
2023-04-07T09:29:31.479Z,15.00
2023-04-07T09:32:40.493Z,15.10
2023-04-07T09:35:40.916Z,14.90
2023-04-07T09:38:38.452Z,14.90
2023-04-07T09:41:38.485Z,15.10
2023-04-07T09:44:46.859Z,15.40
2023-04-07T09:47:43.168Z,15.40
2023-04-07T09:51:08.207Z,15.00
2023-04-07T09:53:58.862Z,14.90
2023-04-07T09:56:57.852Z,15.40
2023-04-07T10:00:07.602Z,16.10
2023-04-07T10:03:00.765Z,16.20
2023-04-07T10:05:55.022Z,16.20
2023-04-07T10:08:48.840Z,16.20
2023-04-07T10:11:42.223Z,16.40
2023-04-07T10:15:08.131Z,16.30
2023-04-07T10:17:57.304Z,16.30
2023-04-07T10:20:48.769Z,16.30
2023-04-07T10:23:57.338Z,16.20
2023-04-07T10:27:02.932Z,16.20
2023-04-07T10:29:54.625Z,16.10
2023-04-07T10:32:50.097Z,16.10
2023-04-07T10:36:08.586Z,16.00
2023-04-07T10:39:43.957Z,16.20
2023-04-07T10:43:02.359Z,16.70
2023-04-07T10:46:03.703Z,17.20
2023-04-07T10:49:14.078Z,17.40
2023-04-07T10:52:34.433Z,17.60
2023-04-07T10:55:50.148Z,17.50
2023-04-07T10:59:28.064Z,17.80
2023-04-07T11:02:41.768Z,18.20
2023-04-07T11:05:33.153Z,18.70
2023-04-07T11:08:37.412Z,19.00
2023-04-07T11:11:50.506Z,18.90
2023-04-07T11:14:54.429Z,19.10
2023-04-07T11:17:52.333Z,19.20
2023-04-07T11:20:48.407Z,18.80
2023-04-07T11:23:44.566Z,18.50
2023-04-07T11:26:44.567Z,18.70
2023-04-07T11:29:35.206Z,18.70
2023-04-07T11:32:41.971Z,19.10
2023-04-07T11:35:39.119Z,19.60
2023-04-07T11:38:38.333Z,19.50
2023-04-07T11:41:36.269Z,19.30
2023-04-07T11:44:37.147Z,19.20
2023-04-07T11:47:45.904Z,19.30
2023-04-07T11:50:47.564Z,19.60
2023-04-07T11:53:42.215Z,19.90
2023-04-07T11:57:00.805Z,19.80
2023-04-07T11:59:54.787Z,20.00
2023-04-07T12:03:03.226Z,20.20
2023-04-07T12:05:57.211Z,20.50
2023-04-07T12:08:56.653Z,20.10
2023-04-07T12:11:53.666Z,20.70
2023-04-07T12:15:06.789Z,21.00
2023-04-07T12:18:09.833Z,21.30
2023-04-07T12:21:04.367Z,21.10
2023-04-07T12:23:59.513Z,21.10
2023-04-07T12:26:55.363Z,20.40
2023-04-07T12:29:48.447Z,19.60
2023-04-07T12:32:45.128Z,19.10
2023-04-07T12:35:39.526Z,18.60
2023-04-07T12:38:34.174Z,18.70
2023-04-07T12:41:26.124Z,18.90
2023-04-07T12:44:19.420Z,18.80
2023-04-07T12:47:13.105Z,19.30
2023-04-07T12:50:15.242Z,19.40
2023-04-07T12:53:11.237Z,19.40
2023-04-07T12:56:10.394Z,19.20
2023-04-07T12:59:03.090Z,19.00
2023-04-07T13:01:59.474Z,18.40
2023-04-07T13:04:57.664Z,17.70
2023-04-07T13:07:49.725Z,17.40
2023-04-07T13:10:51.284Z,17.30
2023-04-07T13:13:46.820Z,17.20
2023-04-07T13:16:47.955Z,17.00
2023-04-07T13:19:41.353Z,16.60
2023-04-07T13:22:36.039Z,16.50
2023-04-07T13:25:32.021Z,16.30
2023-04-07T13:28:35.336Z,16.10
2023-04-07T13:31:29.123Z,15.90
2023-04-07T13:34:22.424Z,15.70
2023-04-07T13:37:14.785Z,15.70
2023-04-07T13:40:13.184Z,15.80
2023-04-07T13:43:09.306Z,15.80
2023-04-07T13:46:06.285Z,16.00
2023-04-07T13:49:04.346Z,16.10
2023-04-07T13:51:59.794Z,16.30
2023-04-07T13:54:53.228Z,16.50
2023-04-07T13:57:53.284Z,16.70
2023-04-07T14:00:46.718Z,16.80
2023-04-07T14:03:39.575Z,16.70
2023-04-07T14:06:42.879Z,16.80
2023-04-07T14:09:35.277Z,16.80
2023-04-07T14:12:31.594Z,17.10
2023-04-07T14:15:32.331Z,17.40
2023-04-07T14:18:28.647Z,17.40
2023-04-07T14:21:27.897Z,17.50
2023-04-07T14:24:20.246Z,17.00
2023-04-07T14:27:18.927Z,17.00
2023-04-07T14:30:12.915Z,17.00
2023-04-07T14:33:05.112Z,16.90
2023-04-07T14:36:02.878Z,16.70
2023-04-07T14:39:07.724Z,16.50
2023-04-07T14:41:57.983Z,16.10
2023-04-07T14:44:53.612Z,15.80
2023-04-07T14:47:45.838Z,15.70
2023-04-07T14:50:38.288Z,15.30
2023-04-07T14:53:31.006Z,15.10
2023-04-07T14:56:28.210Z,14.90
2023-04-07T14:59:22.153Z,14.70
2023-04-07T15:02:16.749Z,14.40
2023-04-07T15:05:16.652Z,14.20
2023-04-07T15:08:09.286Z,14.10
2023-04-07T15:11:00.025Z,13.80
2023-04-07T15:13:55.049Z,13.60
2023-04-07T15:16:48.947Z,13.60
2023-04-07T15:19:49.391Z,13.30
2023-04-07T15:22:49.007Z,13.10
2023-04-07T15:25:38.666Z,13.10
2023-04-07T15:28:28.549Z,13.20
2023-04-07T15:31:42.748Z,13.20
2023-04-07T15:34:36.229Z,13.20
2023-04-07T15:37:27.176Z,13.10
2023-04-07T15:40:17.387Z,13.10
2023-04-07T15:43:16.916Z,12.90
2023-04-07T15:46:09.451Z,12.90
2023-04-07T15:49:06.149Z,13.00
2023-04-07T15:51:59.235Z,12.90
2023-04-07T15:54:48.927Z,12.90
2023-04-07T15:57:42.983Z,12.90
2023-04-07T16:00:37.668Z,12.80
2023-04-07T16:03:36.969Z,12.80
2023-04-07T16:06:34.865Z,12.80
2023-04-07T16:09:28.970Z,12.80
2023-04-07T16:12:29.083Z,12.90
2023-04-07T16:15:38.767Z,12.90
2023-04-07T16:18:33.629Z,12.90
2023-04-07T16:21:23.404Z,12.80
2023-04-07T16:24:28.784Z,12.70
2023-04-07T16:27:24.344Z,12.70
2023-04-07T16:30:18.854Z,12.70
2023-04-07T16:33:11.334Z,12.60
2023-04-07T16:36:04.027Z,12.40
2023-04-07T16:38:58.175Z,12.40
2023-04-07T16:41:53.749Z,12.30
2023-04-07T16:44:46.007Z,12.20
2023-04-07T16:47:35.879Z,12.10
2023-04-07T16:50:28.541Z,12.00
2023-04-07T16:53:21.691Z,11.90
2023-04-07T16:56:20.937Z,11.80
2023-04-07T16:59:15.714Z,11.70
2023-04-07T17:02:13.593Z,11.70
2023-04-07T17:05:05.868Z,11.50
2023-04-07T17:07:58.127Z,11.40
2023-04-07T17:10:59.023Z,11.30
2023-04-07T17:13:56.478Z,11.20
2023-04-07T17:16:50.996Z,11.10
2023-04-07T17:19:41.264Z,10.90
2023-04-07T17:22:31.411Z,10.80
2023-04-07T17:25:22.376Z,10.60
2023-04-07T17:28:13.256Z,10.50
2023-04-07T17:31:07.205Z,10.40
2023-04-07T17:34:01.153Z,10.20
2023-04-07T17:36:53.348Z,10.10
2023-04-07T17:39:50.635Z,9.90
2023-04-07T17:42:46.722Z,9.80
2023-04-07T17:45:40.269Z,9.70
2023-04-07T17:48:33.950Z,9.70
2023-04-07T17:51:29.563Z,9.70
2023-04-07T17:54:26.223Z,9.60
2023-04-07T17:57:21.182Z,9.60
2023-04-07T18:00:13.288Z,9.60
2023-04-07T18:03:06.281Z,9.70
2023-04-07T18:05:57.430Z,9.90
2023-04-07T18:08:52.485Z,10.00
2023-04-07T18:11:42.934Z,10.00
2023-04-07T18:14:33.097Z,10.00
2023-04-07T18:17:29.470Z,9.90
2023-04-07T18:20:24.126Z,9.90
2023-04-07T18:23:14.057Z,9.80
2023-04-07T18:26:09.963Z,9.80
2023-04-07T18:29:02.901Z,9.80
2023-04-07T18:31:56.770Z,9.80
2023-04-07T18:34:51.701Z,9.80
2023-04-07T18:37:42.989Z,9.90
2023-04-07T18:40:36.064Z,9.90
2023-04-07T18:43:30.539Z,9.90
2023-04-07T18:46:28.070Z,9.60
2023-04-07T18:49:21.209Z,9.50
2023-04-07T18:52:11.443Z,9.30
2023-04-07T18:55:02.068Z,9.00
2023-04-07T18:57:53.919Z,8.80
2023-04-07T19:00:45.934Z,8.60
2023-04-07T19:03:40.294Z,8.40
2023-04-07T19:06:31.008Z,8.20
2023-04-07T19:09:21.685Z,8.10
2023-04-07T19:12:12.143Z,7.90
2023-04-07T19:15:10.856Z,7.80
2023-04-07T19:18:04.240Z,7.60
2023-04-07T19:21:01.794Z,7.50
2023-04-07T19:23:59.957Z,7.40
2023-04-07T19:26:56.872Z,7.30
2023-04-07T19:29:48.960Z,7.20
2023-04-07T19:32:39.390Z,7.10
2023-04-07T19:35:34.578Z,7.00
2023-04-07T19:38:24.909Z,6.90
2023-04-07T19:41:23.482Z,6.80
2023-04-07T19:44:17.590Z,6.80
2023-04-07T19:47:07.646Z,6.70
2023-04-07T19:49:57.267Z,6.60
2023-04-07T19:52:55.142Z,6.50
2023-04-07T19:55:56.537Z,6.50
2023-04-07T19:58:58.074Z,6.40
2023-04-07T20:01:50.269Z,6.30
2023-04-07T20:04:40.425Z,6.20
2023-04-07T20:07:34.010Z,6.20
2023-04-07T20:10:29.727Z,6.10
2023-04-07T20:13:22.904Z,6.10
2023-04-07T20:16:15.837Z,6.00
2023-04-07T20:19:06.404Z,5.90
2023-04-07T20:21:58.621Z,5.90
2023-04-07T20:24:48.514Z,5.80
2023-04-07T20:27:42.813Z,5.70
2023-04-07T20:30:36.502Z,5.70
2023-04-07T20:33:26.746Z,5.70
2023-04-07T20:36:38.526Z,5.70
2023-04-07T20:39:30.508Z,5.60
2023-04-07T20:42:24.249Z,5.50
2023-04-07T20:45:18.846Z,5.50
2023-04-07T20:48:09.093Z,5.40
2023-04-07T20:51:01.594Z,5.40
2023-04-07T20:53:56.057Z,5.30
2023-04-07T20:56:50.747Z,5.30
2023-04-07T20:59:40.930Z,5.20
2023-04-07T21:02:35.341Z,5.10
2023-04-07T21:05:29.120Z,5.10
2023-04-07T21:08:23.597Z,5.00
2023-04-07T21:11:14.740Z,5.00
2023-04-07T21:14:06.370Z,5.00
2023-04-07T21:17:04.216Z,5.00
2023-04-07T21:19:55.430Z,4.90
2023-04-07T21:22:51.746Z,4.90
2023-04-07T21:25:41.873Z,4.90
2023-04-07T21:28:37.274Z,4.80
2023-04-07T21:31:27.148Z,4.70
2023-04-07T21:34:17.604Z,4.60
2023-04-07T21:37:11.988Z,4.60
2023-04-07T21:40:02.047Z,4.60
2023-04-07T21:42:52.268Z,4.50
2023-04-07T21:45:42.188Z,4.50
2023-04-07T21:48:35.274Z,4.50
2023-04-07T21:51:25.332Z,4.50
2023-04-07T21:54:20.608Z,4.40
2023-04-07T21:57:12.420Z,4.40
2023-04-07T22:00:05.266Z,4.30
2023-04-07T22:02:57.438Z,4.30
2023-04-07T22:05:49.112Z,4.30
2023-04-07T22:08:42.590Z,4.20
2023-04-07T22:11:38.432Z,4.20
2023-04-07T22:14:28.336Z,4.20
2023-04-07T22:17:20.084Z,4.20
2023-04-07T22:20:13.331Z,4.20
2023-04-07T22:23:04.486Z,4.10
2023-04-07T22:25:55.665Z,4.00
2023-04-07T22:28:47.465Z,4.00
2023-04-07T22:31:44.136Z,3.90
2023-04-07T22:34:34.423Z,3.90
2023-04-07T22:37:25.710Z,3.90
2023-04-07T22:40:15.294Z,3.80
2023-04-07T22:43:06.967Z,3.80
2023-04-07T22:46:03.278Z,3.70
2023-04-07T22:48:53.140Z,3.60
2023-04-07T22:51:48.652Z,3.50
2023-04-07T22:54:39.043Z,3.40
2023-04-07T22:57:34.630Z,3.30
2023-04-07T23:00:24.404Z,3.30
2023-04-07T23:03:17.182Z,3.20
2023-04-07T23:06:08.861Z,3.10
2023-04-07T23:08:58.986Z,3.10
2023-04-07T23:11:50.826Z,3.00
2023-04-07T23:14:42.131Z,2.90
2023-04-07T23:17:34.323Z,2.90
2023-04-07T23:20:33.629Z,2.80
2023-04-07T23:23:23.322Z,2.80
2023-04-07T23:26:12.954Z,2.70
2023-04-07T23:29:02.955Z,2.70
2023-04-07T23:31:53.068Z,2.70
2023-04-07T23:34:47.651Z,2.60
2023-04-07T23:37:42.851Z,2.50
2023-04-07T23:40:32.412Z,2.50
2023-04-07T23:43:26.323Z,2.40
2023-04-07T23:46:16.078Z,2.30
2023-04-07T23:49:06.046Z,2.20
2023-04-07T23:51:57.330Z,2.20
2023-04-07T23:54:51.149Z,2.10
2023-04-07T23:57:43.971Z,2.00
